sensor_id;sensor_type;location;lat;lon;timestamp;P1;durP1;ratioP1;P2;durP2;ratioP2
55172;SDS011;41061;52.822;6.860;2024-02-28T00:00:13;180.10;;;29.88;;
55172;SDS011;41061;52.822;6.860;2024-02-28T00:02:39;200.23;;;28.33;;
55172;SDS011;41061;52.822;6.860;2024-02-28T00:05:05;150.13;;;29.63;;
55172;SDS011;41061;52.822;6.860;2024-02-28T00:07:31;298.65;;;29.50;;
55172;SDS011;41061;52.822;6.860;2024-02-28T00:09:57;154.32;;;26.52;;
55172;SDS011;41061;52.822;6.860;2024-02-28T00:12:24;150.02;;;28.35;;
55172;SDS011;41061;52.822;6.860;2024-02-28T00:14:50;195.38;;;28.67;;
55172;SDS011;41061;52.822;6.860;2024-02-28T00:17:16;128.75;;;26.33;;
55172;SDS011;41061;52.822;6.860;2024-02-28T00:19:42;178.95;;;28.38;;
55172;SDS011;41061;52.822;6.860;2024-02-28T00:22:09;163.65;;;26.85;;
55172;SDS011;41061;52.822;6.860;2024-02-28T00:24:35;258.23;;;31.00;;
55172;SDS011;41061;52.822;6.860;2024-02-28T00:27:01;153.50;;;28.58;;
55172;SDS011;41061;52.822;6.860;2024-02-28T00:29:27;248.18;;;29.30;;
55172;SDS011;41061;52.822;6.860;2024-02-28T00:31:53;160.02;;;29.40;;
55172;SDS011;41061;52.822;6.860;2024-02-28T00:34:19;244.23;;;28.83;;
55172;SDS011;41061;52.822;6.860;2024-02-28T00:36:45;226.25;;;28.65;;
55172;SDS011;41061;52.822;6.860;2024-02-28T00:39:11;214.65;;;28.80;;
55172;SDS011;41061;52.822;6.860;2024-02-28T00:41:37;186.98;;;29.83;;
55172;SDS011;41061;52.822;6.860;2024-02-28T00:44:03;220.35;;;30.63;;
55172;SDS011;41061;52.822;6.860;2024-02-28T00:46:30;200.07;;;30.90;;
55172;SDS011;41061;52.822;6.860;2024-02-28T00:48:56;267.10;;;31.15;;
55172;SDS011;41061;52.822;6.860;2024-02-28T00:51:22;195.05;;;31.08;;
55172;SDS011;41061;52.822;6.860;2024-02-28T00:53:48;207.32;;;32.38;;
55172;SDS011;41061;52.822;6.860;2024-02-28T00:56:14;208.60;;;31.63;;
55172;SDS011;41061;52.822;6.860;2024-02-28T00:58:40;225.48;;;33.17;;
55172;SDS011;41061;52.822;6.860;2024-02-28T01:01:06;198.38;;;31.30;;
55172;SDS011;41061;52.822;6.860;2024-02-28T01:03:32;300.70;;;33.00;;
55172;SDS011;41061;52.822;6.860;2024-02-28T01:05:58;201.18;;;33.13;;
55172;SDS011;41061;52.822;6.860;2024-02-28T01:08:26;241.73;;;31.38;;
55172;SDS011;41061;52.822;6.860;2024-02-28T01:10:52;183.45;;;31.40;;
55172;SDS011;41061;52.822;6.860;2024-02-28T01:13:18;197.13;;;29.05;;
55172;SDS011;41061;52.822;6.860;2024-02-28T01:15:44;204.10;;;31.08;;
55172;SDS011;41061;52.822;6.860;2024-02-28T01:18:10;259.70;;;31.92;;
55172;SDS011;41061;52.822;6.860;2024-02-28T01:20:36;158.27;;;30.15;;
55172;SDS011;41061;52.822;6.860;2024-02-28T01:23:02;229.98;;;32.78;;
55172;SDS011;41061;52.822;6.860;2024-02-28T01:25:29;234.50;;;31.42;;
55172;SDS011;41061;52.822;6.860;2024-02-28T01:27:55;143.68;;;29.38;;
55172;SDS011;41061;52.822;6.860;2024-02-28T01:30:25;148.35;;;30.10;;
55172;SDS011;41061;52.822;6.860;2024-02-28T01:32:51;156.73;;;29.95;;
55172;SDS011;41061;52.822;6.860;2024-02-28T01:35:17;160.15;;;29.90;;
55172;SDS011;41061;52.822;6.860;2024-02-28T01:37:43;198.48;;;29.80;;
55172;SDS011;41061;52.822;6.860;2024-02-28T01:40:09;232.60;;;29.88;;
55172;SDS011;41061;52.822;6.860;2024-02-28T01:42:36;180.82;;;28.27;;
55172;SDS011;41061;52.822;6.860;2024-02-28T01:45:02;201.63;;;29.90;;
55172;SDS011;41061;52.822;6.860;2024-02-28T01:47:28;147.93;;;28.92;;
55172;SDS011;41061;52.822;6.860;2024-02-28T01:49:55;192.18;;;28.63;;
55172;SDS011;41061;52.822;6.860;2024-02-28T01:52:21;236.68;;;30.20;;
55172;SDS011;41061;52.822;6.860;2024-02-28T01:54:47;94.05;;;28.17;;
55172;SDS011;41061;52.822;6.860;2024-02-28T01:57:14;207.60;;;28.77;;
55172;SDS011;41061;52.822;6.860;2024-02-28T01:59:40;149.77;;;29.25;;
55172;SDS011;41061;52.822;6.860;2024-02-28T02:02:07;96.18;;;27.67;;
55172;SDS011;41061;52.822;6.860;2024-02-28T02:04:34;167.27;;;28.25;;
55172;SDS011;41061;52.822;6.860;2024-02-28T02:07:00;159.45;;;29.60;;
55172;SDS011;41061;52.822;6.860;2024-02-28T02:09:26;350.50;;;35.15;;
55172;SDS011;41061;52.822;6.860;2024-02-28T02:11:52;291.40;;;33.55;;
55172;SDS011;41061;52.822;6.860;2024-02-28T02:14:18;251.93;;;32.65;;
55172;SDS011;41061;52.822;6.860;2024-02-28T02:16:44;220.23;;;31.10;;
55172;SDS011;41061;52.822;6.860;2024-02-28T02:19:10;149.15;;;31.70;;
55172;SDS011;41061;52.822;6.860;2024-02-28T02:24:34;134.15;;;29.33;;
55172;SDS011;41061;52.822;6.860;2024-02-28T02:27:01;149.20;;;31.00;;
55172;SDS011;41061;52.822;6.860;2024-02-28T02:29:30;228.45;;;31.10;;
55172;SDS011;41061;52.822;6.860;2024-02-28T02:31:56;198.35;;;32.80;;
55172;SDS011;41061;52.822;6.860;2024-02-28T02:34:22;153.60;;;29.77;;
55172;SDS011;41061;52.822;6.860;2024-02-28T02:36:48;240.25;;;32.85;;
55172;SDS011;41061;52.822;6.860;2024-02-28T02:39:14;106.53;;;30.38;;
55172;SDS011;41061;52.822;6.860;2024-02-28T02:41:40;122.93;;;31.05;;
55172;SDS011;41061;52.822;6.860;2024-02-28T02:44:09;176.23;;;32.92;;
55172;SDS011;41061;52.822;6.860;2024-02-28T02:46:35;175.50;;;32.72;;
55172;SDS011;41061;52.822;6.860;2024-02-28T02:49:01;156.73;;;32.35;;
55172;SDS011;41061;52.822;6.860;2024-02-28T02:51:27;106.45;;;29.38;;
55172;SDS011;41061;52.822;6.860;2024-02-28T02:53:53;124.82;;;29.15;;
55172;SDS011;41061;52.822;6.860;2024-02-28T02:56:20;99.22;;;28.30;;
55172;SDS011;41061;52.822;6.860;2024-02-28T02:58:46;100.38;;;27.63;;
55172;SDS011;41061;52.822;6.860;2024-02-28T03:01:12;93.60;;;29.10;;
55172;SDS011;41061;52.822;6.860;2024-02-28T03:03:38;123.47;;;30.65;;
55172;SDS011;41061;52.822;6.860;2024-02-28T03:06:04;120.15;;;30.27;;
55172;SDS011;41061;52.822;6.860;2024-02-28T03:08:31;100.22;;;31.27;;
55172;SDS011;41061;52.822;6.860;2024-02-28T03:10:57;125.00;;;30.92;;
55172;SDS011;41061;52.822;6.860;2024-02-28T03:13:23;107.63;;;29.52;;
55172;SDS011;41061;52.822;6.860;2024-02-28T03:15:50;176.18;;;33.45;;
55172;SDS011;41061;52.822;6.860;2024-02-28T03:18:16;152.88;;;32.47;;
55172;SDS011;41061;52.822;6.860;2024-02-28T03:20:42;141.95;;;30.67;;
55172;SDS011;41061;52.822;6.860;2024-02-28T03:23:08;175.80;;;32.42;;
55172;SDS011;41061;52.822;6.860;2024-02-28T03:25:34;102.00;;;30.65;;
55172;SDS011;41061;52.822;6.860;2024-02-28T03:28:00;91.95;;;29.25;;
55172;SDS011;41061;52.822;6.860;2024-02-28T03:30:26;83.95;;;29.40;;
55172;SDS011;41061;52.822;6.860;2024-02-28T03:32:52;124.28;;;33.22;;
55172;SDS011;41061;52.822;6.860;2024-02-28T03:35:18;96.93;;;29.20;;
55172;SDS011;41061;52.822;6.860;2024-02-28T03:37:45;125.97;;;29.92;;
55172;SDS011;41061;52.822;6.860;2024-02-28T03:40:11;144.40;;;31.83;;
55172;SDS011;41061;52.822;6.860;2024-02-28T03:42:37;121.20;;;30.13;;
55172;SDS011;41061;52.822;6.860;2024-02-28T03:45:04;84.82;;;27.42;;
55172;SDS011;41061;52.822;6.860;2024-02-28T03:47:30;94.07;;;29.80;;
55172;SDS011;41061;52.822;6.860;2024-02-28T03:49:56;107.53;;;30.20;;
55172;SDS011;41061;52.822;6.860;2024-02-28T03:52:23;90.15;;;28.15;;
55172;SDS011;41061;52.822;6.860;2024-02-28T03:54:49;84.57;;;28.10;;
55172;SDS011;41061;52.822;6.860;2024-02-28T03:57:15;78.57;;;28.75;;
55172;SDS011;41061;52.822;6.860;2024-02-28T03:59:41;92.38;;;29.42;;
55172;SDS011;41061;52.822;6.860;2024-02-28T04:02:07;76.03;;;29.13;;
55172;SDS011;41061;52.822;6.860;2024-02-28T04:04:33;103.25;;;28.30;;
55172;SDS011;41061;52.822;6.860;2024-02-28T04:06:59;105.88;;;30.08;;
55172;SDS011;41061;52.822;6.860;2024-02-28T04:09:25;82.55;;;28.23;;
55172;SDS011;41061;52.822;6.860;2024-02-28T04:11:51;73.25;;;26.98;;
55172;SDS011;41061;52.822;6.860;2024-02-28T04:14:17;85.90;;;25.80;;
55172;SDS011;41061;52.822;6.860;2024-02-28T04:16:43;75.00;;;25.63;;
55172;SDS011;41061;52.822;6.860;2024-02-28T04:19:10;77.88;;;26.50;;
55172;SDS011;41061;52.822;6.860;2024-02-28T04:21:36;74.03;;;26.92;;
55172;SDS011;41061;52.822;6.860;2024-02-28T04:24:03;72.13;;;27.50;;
55172;SDS011;41061;52.822;6.860;2024-02-28T04:26:30;90.40;;;26.55;;
55172;SDS011;41061;52.822;6.860;2024-02-28T04:28:56;104.85;;;28.08;;
55172;SDS011;41061;52.822;6.860;2024-02-28T04:31:22;137.48;;;29.95;;
55172;SDS011;41061;52.822;6.860;2024-02-28T04:33:48;108.00;;;28.67;;
55172;SDS011;41061;52.822;6.860;2024-02-28T04:36:14;92.70;;;29.52;;
55172;SDS011;41061;52.822;6.860;2024-02-28T04:38:41;81.20;;;28.67;;
55172;SDS011;41061;52.822;6.860;2024-02-28T04:41:07;104.18;;;29.27;;
55172;SDS011;41061;52.822;6.860;2024-02-28T04:43:33;126.50;;;31.13;;
55172;SDS011;41061;52.822;6.860;2024-02-28T04:45:59;75.97;;;26.65;;
55172;SDS011;41061;52.822;6.860;2024-02-28T04:48:25;91.80;;;27.63;;
55172;SDS011;41061;52.822;6.860;2024-02-28T04:50:51;84.32;;;28.17;;
55172;SDS011;41061;52.822;6.860;2024-02-28T04:53:17;92.20;;;28.40;;
55172;SDS011;41061;52.822;6.860;2024-02-28T04:55:43;85.50;;;30.50;;
55172;SDS011;41061;52.822;6.860;2024-02-28T04:58:09;88.63;;;29.67;;
55172;SDS011;41061;52.822;6.860;2024-02-28T05:00:35;88.18;;;29.95;;
55172;SDS011;41061;52.822;6.860;2024-02-28T05:03:02;90.30;;;31.83;;
55172;SDS011;41061;52.822;6.860;2024-02-28T05:05:28;100.20;;;32.22;;
55172;SDS011;41061;52.822;6.860;2024-02-28T05:07:54;99.88;;;32.60;;
55172;SDS011;41061;52.822;6.860;2024-02-28T05:10:20;88.05;;;30.58;;
55172;SDS011;41061;52.822;6.860;2024-02-28T05:12:46;93.90;;;31.73;;
55172;SDS011;41061;52.822;6.860;2024-02-28T05:15:12;97.63;;;31.85;;
55172;SDS011;41061;52.822;6.860;2024-02-28T05:17:38;96.30;;;32.00;;
55172;SDS011;41061;52.822;6.860;2024-02-28T05:20:04;91.00;;;31.63;;
55172;SDS011;41061;52.822;6.860;2024-02-28T05:22:30;94.75;;;32.45;;
55172;SDS011;41061;52.822;6.860;2024-02-28T05:24:56;92.32;;;30.23;;
55172;SDS011;41061;52.822;6.860;2024-02-28T05:27:22;88.50;;;30.10;;
55172;SDS011;41061;52.822;6.860;2024-02-28T05:29:48;98.68;;;32.45;;
55172;SDS011;41061;52.822;6.860;2024-02-28T05:32:14;94.18;;;31.30;;
55172;SDS011;41061;52.822;6.860;2024-02-28T05:34:42;95.72;;;30.35;;
55172;SDS011;41061;52.822;6.860;2024-02-28T05:37:08;86.93;;;31.02;;
55172;SDS011;41061;52.822;6.860;2024-02-28T05:39:34;84.28;;;29.38;;
55172;SDS011;41061;52.822;6.860;2024-02-28T05:42:00;97.60;;;32.33;;
55172;SDS011;41061;52.822;6.860;2024-02-28T05:44:26;105.40;;;33.78;;
55172;SDS011;41061;52.822;6.860;2024-02-28T05:46:52;90.80;;;32.03;;
55172;SDS011;41061;52.822;6.860;2024-02-28T05:49:18;98.30;;;32.10;;
55172;SDS011;41061;52.822;6.860;2024-02-28T05:51:44;89.43;;;32.83;;
55172;SDS011;41061;52.822;6.860;2024-02-28T05:54:12;97.88;;;31.83;;
55172;SDS011;41061;52.822;6.860;2024-02-28T05:56:38;102.85;;;33.05;;
55172;SDS011;41061;52.822;6.860;2024-02-28T05:59:04;94.80;;;32.35;;
55172;SDS011;41061;52.822;6.860;2024-02-28T06:01:30;104.57;;;32.50;;
55172;SDS011;41061;52.822;6.860;2024-02-28T06:03:56;99.25;;;30.77;;
55172;SDS011;41061;52.822;6.860;2024-02-28T06:06:22;95.90;;;31.33;;
55172;SDS011;41061;52.822;6.860;2024-02-28T06:08:48;95.63;;;32.15;;
55172;SDS011;41061;52.822;6.860;2024-02-28T06:11:14;95.55;;;32.08;;
55172;SDS011;41061;52.822;6.860;2024-02-28T06:13:40;91.53;;;32.15;;
55172;SDS011;41061;52.822;6.860;2024-02-28T06:16:06;93.80;;;33.17;;
55172;SDS011;41061;52.822;6.860;2024-02-28T06:18:32;85.72;;;30.45;;
55172;SDS011;41061;52.822;6.860;2024-02-28T06:20:59;91.07;;;32.47;;
55172;SDS011;41061;52.822;6.860;2024-02-28T06:23:25;100.90;;;32.67;;
55172;SDS011;41061;52.822;6.860;2024-02-28T06:25:52;90.15;;;33.63;;
55172;SDS011;41061;52.822;6.860;2024-02-28T06:28:18;96.10;;;33.60;;
55172;SDS011;41061;52.822;6.860;2024-02-28T06:30:44;92.13;;;32.17;;
55172;SDS011;41061;52.822;6.860;2024-02-28T06:33:13;93.70;;;31.08;;
55172;SDS011;41061;52.822;6.860;2024-02-28T06:35:40;96.72;;;34.33;;
55172;SDS011;41061;52.822;6.860;2024-02-28T06:38:06;98.03;;;32.42;;
55172;SDS011;41061;52.822;6.860;2024-02-28T06:40:32;99.47;;;33.60;;
55172;SDS011;41061;52.822;6.860;2024-02-28T06:42:59;95.60;;;31.95;;
55172;SDS011;41061;52.822;6.860;2024-02-28T06:45:25;100.47;;;33.28;;
55172;SDS011;41061;52.822;6.860;2024-02-28T06:47:51;100.47;;;35.03;;
55172;SDS011;41061;52.822;6.860;2024-02-28T06:50:17;93.55;;;32.85;;
55172;SDS011;41061;52.822;6.860;2024-02-28T06:52:43;88.82;;;33.08;;
55172;SDS011;41061;52.822;6.860;2024-02-28T06:55:09;89.03;;;32.53;;
55172;SDS011;41061;52.822;6.860;2024-02-28T06:57:39;92.78;;;31.23;;
55172;SDS011;41061;52.822;6.860;2024-02-28T07:00:06;94.32;;;31.73;;
55172;SDS011;41061;52.822;6.860;2024-02-28T07:02:44;87.93;;;31.05;;
55172;SDS011;41061;52.822;6.860;2024-02-28T07:05:10;86.75;;;30.65;;
55172;SDS011;41061;52.822;6.860;2024-02-28T07:07:36;89.88;;;31.35;;
55172;SDS011;41061;52.822;6.860;2024-02-28T07:10:03;82.80;;;30.95;;
55172;SDS011;41061;52.822;6.860;2024-02-28T07:12:29;90.18;;;32.05;;
55172;SDS011;41061;52.822;6.860;2024-02-28T07:14:55;87.43;;;27.40;;
55172;SDS011;41061;52.822;6.860;2024-02-28T07:17:21;83.22;;;30.17;;
55172;SDS011;41061;52.822;6.860;2024-02-28T07:19:48;89.65;;;33.00;;
55172;SDS011;41061;52.822;6.860;2024-02-28T07:22:14;90.43;;;32.00;;
55172;SDS011;41061;52.822;6.860;2024-02-28T07:24:40;86.38;;;30.55;;
55172;SDS011;41061;52.822;6.860;2024-02-28T07:27:06;86.65;;;32.80;;
55172;SDS011;41061;52.822;6.860;2024-02-28T07:29:32;86.55;;;32.28;;
55172;SDS011;41061;52.822;6.860;2024-02-28T07:31:59;86.65;;;31.98;;
55172;SDS011;41061;52.822;6.860;2024-02-28T07:34:27;91.82;;;32.17;;
55172;SDS011;41061;52.822;6.860;2024-02-28T07:36:53;97.43;;;32.78;;
55172;SDS011;41061;52.822;6.860;2024-02-28T07:39:19;86.90;;;30.17;;
55172;SDS011;41061;52.822;6.860;2024-02-28T07:41:46;85.20;;;30.42;;
55172;SDS011;41061;52.822;6.860;2024-02-28T07:44:12;82.13;;;31.55;;
55172;SDS011;41061;52.822;6.860;2024-02-28T07:46:40;82.35;;;30.95;;
55172;SDS011;41061;52.822;6.860;2024-02-28T07:49:07;73.85;;;27.92;;
55172;SDS011;41061;52.822;6.860;2024-02-28T07:51:33;81.13;;;30.67;;
55172;SDS011;41061;52.822;6.860;2024-02-28T07:53:59;87.70;;;31.38;;
55172;SDS011;41061;52.822;6.860;2024-02-28T07:56:25;87.65;;;31.00;;
55172;SDS011;41061;52.822;6.860;2024-02-28T07:58:51;73.82;;;29.60;;
55172;SDS011;41061;52.822;6.860;2024-02-28T08:01:17;80.80;;;32.38;;
55172;SDS011;41061;52.822;6.860;2024-02-28T08:03:43;76.57;;;28.60;;
55172;SDS011;41061;52.822;6.860;2024-02-28T08:06:10;78.65;;;30.08;;
55172;SDS011;41061;52.822;6.860;2024-02-28T08:08:36;75.65;;;30.75;;
55172;SDS011;41061;52.822;6.860;2024-02-28T08:11:02;73.78;;;27.98;;
55172;SDS011;41061;52.822;6.860;2024-02-28T08:13:29;75.18;;;30.60;;
55172;SDS011;41061;52.822;6.860;2024-02-28T08:15:57;71.15;;;29.23;;
55172;SDS011;41061;52.822;6.860;2024-02-28T08:18:24;74.22;;;31.00;;
55172;SDS011;41061;52.822;6.860;2024-02-28T08:20:51;68.53;;;30.63;;
55172;SDS011;41061;52.822;6.860;2024-02-28T08:23:18;75.28;;;31.52;;
55172;SDS011;41061;52.822;6.860;2024-02-28T08:25:44;81.20;;;31.38;;
55172;SDS011;41061;52.822;6.860;2024-02-28T08:28:10;74.85;;;30.73;;
55172;SDS011;41061;52.822;6.860;2024-02-28T08:30:36;71.60;;;30.55;;
55172;SDS011;41061;52.822;6.860;2024-02-28T08:33:02;74.20;;;30.83;;
55172;SDS011;41061;52.822;6.860;2024-02-28T08:35:29;73.97;;;29.30;;
55172;SDS011;41061;52.822;6.860;2024-02-28T08:37:55;72.40;;;30.02;;
55172;SDS011;41061;52.822;6.860;2024-02-28T08:40:21;73.10;;;30.35;;
55172;SDS011;41061;52.822;6.860;2024-02-28T08:42:47;77.07;;;29.88;;
55172;SDS011;41061;52.822;6.860;2024-02-28T08:45:14;66.75;;;29.00;;
55172;SDS011;41061;52.822;6.860;2024-02-28T08:47:41;69.57;;;30.70;;
55172;SDS011;41061;52.822;6.860;2024-02-28T08:50:07;68.13;;;28.88;;
55172;SDS011;41061;52.822;6.860;2024-02-28T08:52:33;72.57;;;31.02;;
55172;SDS011;41061;52.822;6.860;2024-02-28T08:54:59;61.53;;;29.45;;
55172;SDS011;41061;52.822;6.860;2024-02-28T08:57:25;70.40;;;29.90;;
55172;SDS011;41061;52.822;6.860;2024-02-28T08:59:52;70.65;;;31.35;;
55172;SDS011;41061;52.822;6.860;2024-02-28T09:02:19;70.15;;;32.85;;
55172;SDS011;41061;52.822;6.860;2024-02-28T09:04:45;70.53;;;30.42;;
55172;SDS011;41061;52.822;6.860;2024-02-28T09:07:15;64.50;;;30.80;;
55172;SDS011;41061;52.822;6.860;2024-02-28T09:09:44;67.82;;;31.25;;
55172;SDS011;41061;52.822;6.860;2024-02-28T09:12:10;63.53;;;30.58;;
55172;SDS011;41061;52.822;6.860;2024-02-28T09:14:36;72.15;;;32.05;;
55172;SDS011;41061;52.822;6.860;2024-02-28T09:17:03;62.70;;;29.35;;
55172;SDS011;41061;52.822;6.860;2024-02-28T09:19:30;68.20;;;33.22;;
55172;SDS011;41061;52.822;6.860;2024-02-28T09:21:56;64.43;;;31.23;;
55172;SDS011;41061;52.822;6.860;2024-02-28T09:24:23;61.20;;;30.55;;
55172;SDS011;41061;52.822;6.860;2024-02-28T09:26:49;62.05;;;29.92;;
55172;SDS011;41061;52.822;6.860;2024-02-28T09:29:15;63.70;;;31.27;;
55172;SDS011;41061;52.822;6.860;2024-02-28T09:31:41;66.80;;;32.13;;
55172;SDS011;41061;52.822;6.860;2024-02-28T09:34:07;64.93;;;31.23;;
55172;SDS011;41061;52.822;6.860;2024-02-28T09:36:44;66.00;;;31.60;;
55172;SDS011;41061;52.822;6.860;2024-02-28T09:39:13;64.72;;;30.05;;
55172;SDS011;41061;52.822;6.860;2024-02-28T09:41:42;62.20;;;31.70;;
55172;SDS011;41061;52.822;6.860;2024-02-28T09:44:08;59.78;;;30.67;;
55172;SDS011;41061;52.822;6.860;2024-02-28T09:46:34;62.58;;;31.15;;
55172;SDS011;41061;52.822;6.860;2024-02-28T09:49:04;70.50;;;30.80;;
55172;SDS011;41061;52.822;6.860;2024-02-28T09:51:33;61.38;;;31.48;;
55172;SDS011;41061;52.822;6.860;2024-02-28T09:54:00;62.50;;;29.73;;
55172;SDS011;41061;52.822;6.860;2024-02-28T09:56:27;61.08;;;31.27;;
55172;SDS011;41061;52.822;6.860;2024-02-28T09:58:54;61.72;;;32.45;;
55172;SDS011;41061;52.822;6.860;2024-02-28T10:01:21;59.03;;;30.88;;
55172;SDS011;41061;52.822;6.860;2024-02-28T10:03:47;62.83;;;31.45;;
55172;SDS011;41061;52.822;6.860;2024-02-28T10:06:15;60.22;;;31.77;;
55172;SDS011;41061;52.822;6.860;2024-02-28T10:08:41;57.90;;;30.42;;
55172;SDS011;41061;52.822;6.860;2024-02-28T10:11:07;59.55;;;30.77;;
55172;SDS011;41061;52.822;6.860;2024-02-28T10:13:33;60.80;;;31.35;;
55172;SDS011;41061;52.822;6.860;2024-02-28T10:15:59;65.15;;;32.95;;
55172;SDS011;41061;52.822;6.860;2024-02-28T10:18:25;62.78;;;32.50;;
55172;SDS011;41061;52.822;6.860;2024-02-28T10:20:51;53.97;;;29.95;;
55172;SDS011;41061;52.822;6.860;2024-02-28T10:23:18;56.03;;;31.20;;
55172;SDS011;41061;52.822;6.860;2024-02-28T10:28:10;64.22;;;33.08;;
55172;SDS011;41061;52.822;6.860;2024-02-28T10:30:40;59.90;;;30.85;;
55172;SDS011;41061;52.822;6.860;2024-02-28T10:33:13;57.30;;;32.10;;
55172;SDS011;41061;52.822;6.860;2024-02-28T10:35:40;64.65;;;33.35;;
55172;SDS011;41061;52.822;6.860;2024-02-28T10:38:09;61.00;;;31.27;;
55172;SDS011;41061;52.822;6.860;2024-02-28T10:40:42;66.72;;;33.10;;
55172;SDS011;41061;52.822;6.860;2024-02-28T10:43:08;61.67;;;34.97;;
55172;SDS011;41061;52.822;6.860;2024-02-28T10:45:37;57.65;;;33.65;;
55172;SDS011;41061;52.822;6.860;2024-02-28T10:48:04;57.33;;;34.40;;
55172;SDS011;41061;52.822;6.860;2024-02-28T10:50:30;63.88;;;34.08;;
55172;SDS011;41061;52.822;6.860;2024-02-28T10:52:58;62.50;;;33.88;;
55172;SDS011;41061;52.822;6.860;2024-02-28T10:55:29;62.67;;;35.15;;
55172;SDS011;41061;52.822;6.860;2024-02-28T10:58:02;60.55;;;34.42;;
55172;SDS011;41061;52.822;6.860;2024-02-28T11:00:32;60.55;;;35.20;;
55172;SDS011;41061;52.822;6.860;2024-02-28T11:03:00;58.83;;;34.85;;
55172;SDS011;41061;52.822;6.860;2024-02-28T11:05:38;55.83;;;34.97;;
55172;SDS011;41061;52.822;6.860;2024-02-28T11:08:09;54.30;;;32.88;;
55172;SDS011;41061;52.822;6.860;2024-02-28T11:10:36;56.08;;;34.88;;
55172;SDS011;41061;52.822;6.860;2024-02-28T11:13:08;54.40;;;33.25;;
55172;SDS011;41061;52.822;6.860;2024-02-28T11:15:36;53.47;;;33.83;;
55172;SDS011;41061;52.822;6.860;2024-02-28T11:18:08;55.72;;;34.72;;
55172;SDS011;41061;52.822;6.860;2024-02-28T11:20:34;52.00;;;32.72;;
55172;SDS011;41061;52.822;6.860;2024-02-28T11:23:00;52.90;;;34.50;;
55172;SDS011;41061;52.822;6.860;2024-02-28T11:25:26;53.45;;;33.03;;
55172;SDS011;41061;52.822;6.860;2024-02-28T11:27:52;49.33;;;32.88;;
55172;SDS011;41061;52.822;6.860;2024-02-28T11:30:18;48.38;;;34.65;;
55172;SDS011;41061;52.822;6.860;2024-02-28T11:32:45;49.20;;;33.00;;
55172;SDS011;41061;52.822;6.860;2024-02-28T11:35:10;52.50;;;35.13;;
55172;SDS011;41061;52.822;6.860;2024-02-28T11:37:39;50.13;;;33.97;;
55172;SDS011;41061;52.822;6.860;2024-02-28T11:40:08;51.08;;;34.38;;
55172;SDS011;41061;52.822;6.860;2024-02-28T11:42:38;47.70;;;32.38;;
55172;SDS011;41061;52.822;6.860;2024-02-28T11:45:04;44.70;;;31.55;;
55172;SDS011;41061;52.822;6.860;2024-02-28T11:47:31;49.30;;;33.38;;
55172;SDS011;41061;52.822;6.860;2024-02-28T11:49:58;52.75;;;33.25;;
55172;SDS011;41061;52.822;6.860;2024-02-28T11:52:26;53.25;;;35.15;;
55172;SDS011;41061;52.822;6.860;2024-02-28T11:54:52;48.55;;;33.50;;
55172;SDS011;41061;52.822;6.860;2024-02-28T11:57:19;47.17;;;33.58;;
55172;SDS011;41061;52.822;6.860;2024-02-28T11:59:44;50.17;;;33.05;;
55172;SDS011;41061;52.822;6.860;2024-02-28T12:02:11;49.13;;;33.08;;
55172;SDS011;41061;52.822;6.860;2024-02-28T12:04:38;50.67;;;32.90;;
55172;SDS011;41061;52.822;6.860;2024-02-28T12:07:05;49.53;;;34.50;;
55172;SDS011;41061;52.822;6.860;2024-02-28T12:09:31;46.40;;;33.20;;
55172;SDS011;41061;52.822;6.860;2024-02-28T12:11:59;44.33;;;31.67;;
55172;SDS011;41061;52.822;6.860;2024-02-28T12:14:26;46.17;;;31.88;;
55172;SDS011;41061;52.822;6.860;2024-02-28T12:16:52;46.65;;;32.35;;
55172;SDS011;41061;52.822;6.860;2024-02-28T12:19:18;50.95;;;33.00;;
55172;SDS011;41061;52.822;6.860;2024-02-28T12:21:45;48.28;;;33.30;;
55172;SDS011;41061;52.822;6.860;2024-02-28T12:24:11;45.10;;;32.08;;
55172;SDS011;41061;52.822;6.860;2024-02-28T12:26:38;44.45;;;31.30;;
55172;SDS011;41061;52.822;6.860;2024-02-28T12:29:04;48.58;;;33.00;;
55172;SDS011;41061;52.822;6.860;2024-02-28T12:31:30;45.25;;;32.80;;
55172;SDS011;41061;52.822;6.860;2024-02-28T12:33:56;44.05;;;30.65;;
55172;SDS011;41061;52.822;6.860;2024-02-28T12:36:22;41.10;;;30.95;;
55172;SDS011;41061;52.822;6.860;2024-02-28T12:38:47;47.03;;;32.58;;
55172;SDS011;41061;52.822;6.860;2024-02-28T12:41:13;42.90;;;31.40;;
55172;SDS011;41061;52.822;6.860;2024-02-28T12:43:40;46.53;;;31.65;;
55172;SDS011;41061;52.822;6.860;2024-02-28T12:46:06;44.75;;;31.38;;
55172;SDS011;41061;52.822;6.860;2024-02-28T12:48:38;45.70;;;32.45;;
55172;SDS011;41061;52.822;6.860;2024-02-28T12:51:05;43.90;;;31.73;;
55172;SDS011;41061;52.822;6.860;2024-02-28T12:53:33;47.20;;;31.65;;
55172;SDS011;41061;52.822;6.860;2024-02-28T12:55:59;42.10;;;32.33;;
55172;SDS011;41061;52.822;6.860;2024-02-28T12:58:25;46.53;;;32.95;;
55172;SDS011;41061;52.822;6.860;2024-02-28T13:00:51;42.20;;;31.05;;
55172;SDS011;41061;52.822;6.860;2024-02-28T13:03:17;41.13;;;30.33;;
55172;SDS011;41061;52.822;6.860;2024-02-28T13:05:43;45.97;;;32.40;;
55172;SDS011;41061;52.822;6.860;2024-02-28T13:08:09;48.97;;;34.10;;
55172;SDS011;41061;52.822;6.860;2024-02-28T13:10:35;50.08;;;32.08;;
55172;SDS011;41061;52.822;6.860;2024-02-28T13:13:06;47.38;;;32.85;;
55172;SDS011;41061;52.822;6.860;2024-02-28T13:15:32;52.75;;;33.97;;
55172;SDS011;41061;52.822;6.860;2024-02-28T13:17:59;54.45;;;33.30;;
55172;SDS011;41061;52.822;6.860;2024-02-28T13:20:26;47.50;;;33.00;;
55172;SDS011;41061;52.822;6.860;2024-02-28T13:22:52;51.72;;;33.33;;
55172;SDS011;41061;52.822;6.860;2024-02-28T13:25:18;51.28;;;33.85;;
55172;SDS011;41061;52.822;6.860;2024-02-28T13:27:44;48.17;;;31.83;;
55172;SDS011;41061;52.822;6.860;2024-02-28T13:30:11;47.45;;;31.33;;
55172;SDS011;41061;52.822;6.860;2024-02-28T13:32:37;44.88;;;29.52;;
55172;SDS011;41061;52.822;6.860;2024-02-28T13:35:03;45.28;;;30.67;;
55172;SDS011;41061;52.822;6.860;2024-02-28T13:37:29;46.58;;;31.42;;
55172;SDS011;41061;52.822;6.860;2024-02-28T13:39:56;52.55;;;32.78;;
55172;SDS011;41061;52.822;6.860;2024-02-28T13:42:22;52.83;;;33.58;;
55172;SDS011;41061;52.822;6.860;2024-02-28T13:44:49;51.33;;;32.63;;
55172;SDS011;41061;52.822;6.860;2024-02-28T13:47:15;48.78;;;31.90;;
55172;SDS011;41061;52.822;6.860;2024-02-28T13:49:41;49.25;;;32.85;;
55172;SDS011;41061;52.822;6.860;2024-02-28T13:52:07;44.70;;;30.77;;
55172;SDS011;41061;52.822;6.860;2024-02-28T13:54:32;54.78;;;32.88;;
55172;SDS011;41061;52.822;6.860;2024-02-28T13:56:59;58.92;;;33.33;;
55172;SDS011;41061;52.822;6.860;2024-02-28T13:59:26;50.60;;;32.85;;
55172;SDS011;41061;52.822;6.860;2024-02-28T14:01:52;49.30;;;34.22;;
55172;SDS011;41061;52.822;6.860;2024-02-28T14:04:18;56.30;;;33.95;;
55172;SDS011;41061;52.822;6.860;2024-02-28T14:06:44;51.55;;;32.72;;
55172;SDS011;41061;52.822;6.860;2024-02-28T14:09:11;54.50;;;32.58;;
55172;SDS011;41061;52.822;6.860;2024-02-28T14:11:37;51.15;;;31.70;;
55172;SDS011;41061;52.822;6.860;2024-02-28T14:14:02;48.80;;;30.83;;
55172;SDS011;41061;52.822;6.860;2024-02-28T14:16:29;48.30;;;30.00;;
55172;SDS011;41061;52.822;6.860;2024-02-28T14:18:57;44.60;;;29.13;;